sensor_id;sensor_type;location;lat;lon;timestamp;temperature;humidity
16643;DHT22;8435;52.184;5.406;2023-02-21T00:00:32;11.70;99.90
16643;DHT22;8435;52.184;5.406;2023-02-21T00:03:16;11.70;99.90
16643;DHT22;8435;52.184;5.406;2023-02-21T00:06:00;11.70;99.90
16643;DHT22;8435;52.184;5.406;2023-02-21T00:08:45;11.70;99.90
16643;DHT22;8435;52.184;5.406;2023-02-21T00:11:29;11.70;99.90
16643;DHT22;8435;52.184;5.406;2023-02-21T00:14:13;11.70;99.90
16643;DHT22;8435;52.184;5.406;2023-02-21T00:16:59;11.70;99.90
16643;DHT22;8435;52.184;5.406;2023-02-21T00:19:43;11.70;99.90
16643;DHT22;8435;52.184;5.406;2023-02-21T00:22:27;11.70;99.90
16643;DHT22;8435;52.184;5.406;2023-02-21T00:25:12;11.80;99.90
16643;DHT22;8435;52.184;5.406;2023-02-21T00:27:56;11.70;99.90
16643;DHT22;8435;52.184;5.406;2023-02-21T00:30:40;11.70;99.90
16643;DHT22;8435;52.184;5.406;2023-02-21T00:33:26;11.70;99.90
16643;DHT22;8435;52.184;5.406;2023-02-21T00:36:15;11.80;99.90
16643;DHT22;8435;52.184;5.406;2023-02-21T00:38:59;11.80;99.90
16643;DHT22;8435;52.184;5.406;2023-02-21T00:41:43;11.80;99.90
16643;DHT22;8435;52.184;5.406;2023-02-21T00:44:27;11.80;99.90
16643;DHT22;8435;52.184;5.406;2023-02-21T00:47:12;11.70;99.90
16643;DHT22;8435;52.184;5.406;2023-02-21T00:49:57;11.70;99.90
16643;DHT22;8435;52.184;5.406;2023-02-21T00:52:41;11.70;99.90
16643;DHT22;8435;52.184;5.406;2023-02-21T00:55:25;11.70;99.90
16643;DHT22;8435;52.184;5.406;2023-02-21T00:58:09;11.70;99.90
16643;DHT22;8435;52.184;5.406;2023-02-21T01:00:53;11.70;99.90
16643;DHT22;8435;52.184;5.406;2023-02-21T01:03:37;11.80;99.90
16643;DHT22;8435;52.184;5.406;2023-02-21T01:06:23;11.70;99.90
16643;DHT22;8435;52.184;5.406;2023-02-21T01:09:07;11.70;99.90
16643;DHT22;8435;52.184;5.406;2023-02-21T01:11:52;11.70;99.90
16643;DHT22;8435;52.184;5.406;2023-02-21T01:14:36;11.70;99.90
16643;DHT22;8435;52.184;5.406;2023-02-21T01:17:20;11.70;99.90
16643;DHT22;8435;52.184;5.406;2023-02-21T01:20:05;11.70;99.90
16643;DHT22;8435;52.184;5.406;2023-02-21T01:22:51;11.70;99.90
16643;DHT22;8435;52.184;5.406;2023-02-21T01:25:35;11.70;99.90
16643;DHT22;8435;52.184;5.406;2023-02-21T01:28:19;11.70;99.90
16643;DHT22;8435;52.184;5.406;2023-02-21T01:31:04;11.60;99.90
16643;DHT22;8435;52.184;5.406;2023-02-21T01:33:48;11.70;99.90
16643;DHT22;8435;52.184;5.406;2023-02-21T01:36:32;11.70;99.90
16643;DHT22;8435;52.184;5.406;2023-02-21T01:39:18;11.60;99.90
16643;DHT22;8435;52.184;5.406;2023-02-21T01:42:02;11.70;99.90
16643;DHT22;8435;52.184;5.406;2023-02-21T01:44:47;11.60;99.90
16643;DHT22;8435;52.184;5.406;2023-02-21T01:47:32;11.70;99.90
16643;DHT22;8435;52.184;5.406;2023-02-21T01:50:20;11.60;99.90
16643;DHT22;8435;52.184;5.406;2023-02-21T01:53:15;11.60;99.90
16643;DHT22;8435;52.184;5.406;2023-02-21T01:56:02;11.60;99.90
16643;DHT22;8435;52.184;5.406;2023-02-21T01:58:49;11.70;99.90
16643;DHT22;8435;52.184;5.406;2023-02-21T02:01:38;11.60;99.90
16643;DHT22;8435;52.184;5.406;2023-02-21T02:04:23;11.60;99.90
16643;DHT22;8435;52.184;5.406;2023-02-21T02:07:08;11.60;99.90
16643;DHT22;8435;52.184;5.406;2023-02-21T02:09:53;11.60;99.90
16643;DHT22;8435;52.184;5.406;2023-02-21T02:13:08;11.70;99.90
16643;DHT22;8435;52.184;5.406;2023-02-21T02:15:44;11.70;99.90
16643;DHT22;8435;52.184;5.406;2023-02-21T02:18:33;11.60;99.90
16643;DHT22;8435;52.184;5.406;2023-02-21T02:24:33;11.70;99.90
16643;DHT22;8435;52.184;5.406;2023-02-21T02:27:25;11.70;99.90
16643;DHT22;8435;52.184;5.406;2023-02-21T02:33:21;11.70;99.90
16643;DHT22;8435;52.184;5.406;2023-02-21T02:35:59;11.70;99.90
16643;DHT22;8435;52.184;5.406;2023-02-21T02:38:32;11.70;99.90
16643;DHT22;8435;52.184;5.406;2023-02-21T02:41:06;11.70;99.90
16643;DHT22;8435;52.184;5.406;2023-02-21T02:43:43;11.80;99.90
16643;DHT22;8435;52.184;5.406;2023-02-21T02:46:16;11.80;99.90
16643;DHT22;8435;52.184;5.406;2023-02-21T02:48:47;11.80;99.90
16643;DHT22;8435;52.184;5.406;2023-02-21T02:51:17;11.80;99.90
16643;DHT22;8435;52.184;5.406;2023-02-21T02:53:47;11.80;99.90
16643;DHT22;8435;52.184;5.406;2023-02-21T02:56:14;11.80;99.90
16643;DHT22;8435;52.184;5.406;2023-02-21T02:58:45;11.80;99.90
16643;DHT22;8435;52.184;5.406;2023-02-21T03:01:25;11.80;99.90
16643;DHT22;8435;52.184;5.406;2023-02-21T03:04:12;11.80;99.90
16643;DHT22;8435;52.184;5.406;2023-02-21T03:06:51;11.80;99.90
16643;DHT22;8435;52.184;5.406;2023-02-21T03:09:25;11.80;99.90
16643;DHT22;8435;52.184;5.406;2023-02-21T03:12:00;11.80;99.90
16643;DHT22;8435;52.184;5.406;2023-02-21T03:14:35;11.80;99.90
16643;DHT22;8435;52.184;5.406;2023-02-21T03:17:11;11.80;99.90
16643;DHT22;8435;52.184;5.406;2023-02-21T03:19:43;11.80;99.90
16643;DHT22;8435;52.184;5.406;2023-02-21T03:22:14;11.80;99.90
16643;DHT22;8435;52.184;5.406;2023-02-21T03:24:44;11.80;99.90
16643;DHT22;8435;52.184;5.406;2023-02-21T03:27:14;11.80;99.90
16643;DHT22;8435;52.184;5.406;2023-02-21T03:29:42;11.80;99.90
16643;DHT22;8435;52.184;5.406;2023-02-21T03:32:12;11.80;99.90
16643;DHT22;8435;52.184;5.406;2023-02-21T03:34:40;11.80;99.90
16643;DHT22;8435;52.184;5.406;2023-02-21T03:37:10;11.80;99.90
16643;DHT22;8435;52.184;5.406;2023-02-21T03:39:45;11.80;99.90
16643;DHT22;8435;52.184;5.406;2023-02-21T03:42:12;11.80;99.90
16643;DHT22;8435;52.184;5.406;2023-02-21T03:44:38;11.80;99.90
16643;DHT22;8435;52.184;5.406;2023-02-21T03:47:05;11.80;99.90
16643;DHT22;8435;52.184;5.406;2023-02-21T03:49:32;11.80;99.90
16643;DHT22;8435;52.184;5.406;2023-02-21T03:51:59;11.80;99.90
16643;DHT22;8435;52.184;5.406;2023-02-21T03:54:26;11.80;99.90
16643;DHT22;8435;52.184;5.406;2023-02-21T03:56:54;11.80;99.90
16643;DHT22;8435;52.184;5.406;2023-02-21T03:59:20;11.80;99.90
16643;DHT22;8435;52.184;5.406;2023-02-21T04:01:50;11.80;99.90
16643;DHT22;8435;52.184;5.406;2023-02-21T04:04:17;11.80;99.90
16643;DHT22;8435;52.184;5.406;2023-02-21T04:06:43;11.80;99.90
16643;DHT22;8435;52.184;5.406;2023-02-21T04:09:10;11.80;99.90
16643;DHT22;8435;52.184;5.406;2023-02-21T04:11:37;11.80;99.90
16643;DHT22;8435;52.184;5.406;2023-02-21T04:14:05;11.80;99.90
16643;DHT22;8435;52.184;5.406;2023-02-21T04:16:34;11.90;99.90
16643;DHT22;8435;52.184;5.406;2023-02-21T04:19:01;11.80;99.90
16643;DHT22;8435;52.184;5.406;2023-02-21T04:21:28;11.90;99.90
16643;DHT22;8435;52.184;5.406;2023-02-21T04:23:58;11.80;99.90
16643;DHT22;8435;52.184;5.406;2023-02-21T04:26:25;11.90;99.90
16643;DHT22;8435;52.184;5.406;2023-02-21T04:28:54;11.90;99.90
16643;DHT22;8435;52.184;5.406;2023-02-21T04:31:26;11.80;99.90
16643;DHT22;8435;52.184;5.406;2023-02-21T04:33:52;11.90;99.90
16643;DHT22;8435;52.184;5.406;2023-02-21T04:36:19;11.90;99.90
16643;DHT22;8435;52.184;5.406;2023-02-21T04:38:49;11.80;99.90
16643;DHT22;8435;52.184;5.406;2023-02-21T04:41:18;11.90;99.90
16643;DHT22;8435;52.184;5.406;2023-02-21T04:43:45;11.80;99.90
16643;DHT22;8435;52.184;5.406;2023-02-21T04:46:13;11.80;99.90
16643;DHT22;8435;52.184;5.406;2023-02-21T04:48:42;11.80;99.90
16643;DHT22;8435;52.184;5.406;2023-02-21T04:51:09;11.80;99.90
16643;DHT22;8435;52.184;5.406;2023-02-21T04:53:36;11.80;99.90
16643;DHT22;8435;52.184;5.406;2023-02-21T04:56:03;11.80;99.90
16643;DHT22;8435;52.184;5.406;2023-02-21T04:58:30;11.80;99.90
16643;DHT22;8435;52.184;5.406;2023-02-21T05:00:57;11.80;99.90
16643;DHT22;8435;52.184;5.406;2023-02-21T05:03:23;11.80;99.90
16643;DHT22;8435;52.184;5.406;2023-02-21T05:05:52;11.80;99.90
16643;DHT22;8435;52.184;5.406;2023-02-21T05:08:21;11.80;99.90
16643;DHT22;8435;52.184;5.406;2023-02-21T05:10:49;11.80;99.90
16643;DHT22;8435;52.184;5.406;2023-02-21T05:13:16;11.80;99.90
16643;DHT22;8435;52.184;5.406;2023-02-21T05:15:42;11.80;99.90
16643;DHT22;8435;52.184;5.406;2023-02-21T05:18:09;11.70;99.90
16643;DHT22;8435;52.184;5.406;2023-02-21T05:20:36;11.80;99.90
16643;DHT22;8435;52.184;5.406;2023-02-21T05:23:04;11.80;99.90
16643;DHT22;8435;52.184;5.406;2023-02-21T05:25:31;11.80;99.90
16643;DHT22;8435;52.184;5.406;2023-02-21T05:27:58;11.80;99.90
16643;DHT22;8435;52.184;5.406;2023-02-21T05:30:24;11.80;99.90
16643;DHT22;8435;52.184;5.406;2023-02-21T05:32:51;11.80;99.90
16643;DHT22;8435;52.184;5.406;2023-02-21T05:35:18;11.80;99.90
16643;DHT22;8435;52.184;5.406;2023-02-21T05:37:45;11.80;99.90
16643;DHT22;8435;52.184;5.406;2023-02-21T05:40:25;11.70;99.90
16643;DHT22;8435;52.184;5.406;2023-02-21T05:42:52;11.70;99.90
16643;DHT22;8435;52.184;5.406;2023-02-21T05:45:18;11.80;99.90
16643;DHT22;8435;52.184;5.406;2023-02-21T05:47:45;11.80;99.90
16643;DHT22;8435;52.184;5.406;2023-02-21T05:50:12;11.80;99.90
16643;DHT22;8435;52.184;5.406;2023-02-21T05:52:40;11.80;99.90
16643;DHT22;8435;52.184;5.406;2023-02-21T05:55:07;11.80;99.90
16643;DHT22;8435;52.184;5.406;2023-02-21T05:57:38;11.80;99.90
16643;DHT22;8435;52.184;5.406;2023-02-21T06:00:06;11.80;99.90
16643;DHT22;8435;52.184;5.406;2023-02-21T06:02:33;11.80;99.90
16643;DHT22;8435;52.184;5.406;2023-02-21T06:04:59;11.80;99.90
16643;DHT22;8435;52.184;5.406;2023-02-21T06:07:28;11.80;99.90
16643;DHT22;8435;52.184;5.406;2023-02-21T06:09:55;11.80;99.90
16643;DHT22;8435;52.184;5.406;2023-02-21T06:12:22;11.80;99.90
16643;DHT22;8435;52.184;5.406;2023-02-21T06:14:50;11.80;99.90
16643;DHT22;8435;52.184;5.406;2023-02-21T06:17:17;11.80;99.90
16643;DHT22;8435;52.184;5.406;2023-02-21T06:19:44;11.80;99.90
16643;DHT22;8435;52.184;5.406;2023-02-21T06:22:10;11.90;99.90
16643;DHT22;8435;52.184;5.406;2023-02-21T06:24:37;11.80;99.90
16643;DHT22;8435;52.184;5.406;2023-02-21T06:27:04;11.80;99.90
16643;DHT22;8435;52.184;5.406;2023-02-21T06:29:31;11.90;99.90
16643;DHT22;8435;52.184;5.406;2023-02-21T06:31:59;11.90;99.90
16643;DHT22;8435;52.184;5.406;2023-02-21T06:34:27;11.80;99.90
16643;DHT22;8435;52.184;5.406;2023-02-21T06:36:54;11.80;99.90
16643;DHT22;8435;52.184;5.406;2023-02-21T06:39:21;11.90;99.90
16643;DHT22;8435;52.184;5.406;2023-02-21T06:41:49;11.80;99.90
16643;DHT22;8435;52.184;5.406;2023-02-21T06:44:18;11.80;99.90
16643;DHT22;8435;52.184;5.406;2023-02-21T06:46:47;11.80;99.90
16643;DHT22;8435;52.184;5.406;2023-02-21T06:49:16;11.80;99.90
16643;DHT22;8435;52.184;5.406;2023-02-21T06:51:44;11.80;99.90
16643;DHT22;8435;52.184;5.406;2023-02-21T06:54:12;11.80;99.90
16643;DHT22;8435;52.184;5.406;2023-02-21T06:56:39;11.80;99.90
16643;DHT22;8435;52.184;5.406;2023-02-21T06:59:06;11.80;99.90
16643;DHT22;8435;52.184;5.406;2023-02-21T07:01:33;11.80;99.90
16643;DHT22;8435;52.184;5.406;2023-02-21T07:04:00;11.80;99.90
16643;DHT22;8435;52.184;5.406;2023-02-21T07:06:29;11.80;99.90
16643;DHT22;8435;52.184;5.406;2023-02-21T07:09:00;11.80;99.90
16643;DHT22;8435;52.184;5.406;2023-02-21T07:11:27;11.90;99.90
16643;DHT22;8435;52.184;5.406;2023-02-21T07:13:56;11.80;99.90
16643;DHT22;8435;52.184;5.406;2023-02-21T07:16:24;11.80;99.90
16643;DHT22;8435;52.184;5.406;2023-02-21T07:18:51;11.80;99.90
16643;DHT22;8435;52.184;5.406;2023-02-21T07:21:19;11.80;99.90
16643;DHT22;8435;52.184;5.406;2023-02-21T07:23:47;11.80;99.90
16643;DHT22;8435;52.184;5.406;2023-02-21T07:26:17;11.80;99.90
16643;DHT22;8435;52.184;5.406;2023-02-21T07:28:46;11.90;99.90
16643;DHT22;8435;52.184;5.406;2023-02-21T07:31:13;11.80;99.90
16643;DHT22;8435;52.184;5.406;2023-02-21T07:33:43;11.90;99.90
16643;DHT22;8435;52.184;5.406;2023-02-21T07:36:10;11.90;99.90
16643;DHT22;8435;52.184;5.406;2023-02-21T07:38:36;11.90;99.90
16643;DHT22;8435;52.184;5.406;2023-02-21T07:41:05;11.80;99.90
16643;DHT22;8435;52.184;5.406;2023-02-21T07:43:32;11.80;99.90
16643;DHT22;8435;52.184;5.406;2023-02-21T07:45:59;11.90;99.90
16643;DHT22;8435;52.184;5.406;2023-02-21T07:48:29;11.90;99.90
16643;DHT22;8435;52.184;5.406;2023-02-21T07:50:56;11.90;99.90
16643;DHT22;8435;52.184;5.406;2023-02-21T07:53:22;11.90;99.90
16643;DHT22;8435;52.184;5.406;2023-02-21T07:55:52;11.90;99.90
16643;DHT22;8435;52.184;5.406;2023-02-21T07:58:20;11.90;99.90
16643;DHT22;8435;52.184;5.406;2023-02-21T08:00:47;11.90;99.90
16643;DHT22;8435;52.184;5.406;2023-02-21T08:03:14;11.80;99.90
16643;DHT22;8435;52.184;5.406;2023-02-21T08:05:41;11.90;99.90
16643;DHT22;8435;52.184;5.406;2023-02-21T08:08:08;11.90;99.90
16643;DHT22;8435;52.184;5.406;2023-02-21T08:10:35;11.80;99.90
16643;DHT22;8435;52.184;5.406;2023-02-21T08:13:02;11.90;99.90
16643;DHT22;8435;52.184;5.406;2023-02-21T08:15:30;11.90;99.90
16643;DHT22;8435;52.184;5.406;2023-02-21T08:17:57;11.90;99.90
16643;DHT22;8435;52.184;5.406;2023-02-21T08:20:24;11.90;99.90
16643;DHT22;8435;52.184;5.406;2023-02-21T08:22:50;11.90;99.90
16643;DHT22;8435;52.184;5.406;2023-02-21T08:25:17;11.90;99.90
16643;DHT22;8435;52.184;5.406;2023-02-21T08:27:47;11.90;99.90
16643;DHT22;8435;52.184;5.406;2023-02-21T08:30:18;11.90;99.90
16643;DHT22;8435;52.184;5.406;2023-02-21T08:32:46;11.90;99.90
16643;DHT22;8435;52.184;5.406;2023-02-21T08:35:14;12.00;99.90
16643;DHT22;8435;52.184;5.406;2023-02-21T08:37:43;12.00;99.90
16643;DHT22;8435;52.184;5.406;2023-02-21T08:40:11;12.00;99.90
16643;DHT22;8435;52.184;5.406;2023-02-21T08:42:38;12.00;99.90
16643;DHT22;8435;52.184;5.406;2023-02-21T08:45:05;12.00;99.90
16643;DHT22;8435;52.184;5.406;2023-02-21T08:47:34;12.00;99.90
16643;DHT22;8435;52.184;5.406;2023-02-21T08:50:02;12.00;99.90
16643;DHT22;8435;52.184;5.406;2023-02-21T08:52:29;12.00;99.90
16643;DHT22;8435;52.184;5.406;2023-02-21T08:54:56;12.00;99.90
16643;DHT22;8435;52.184;5.406;2023-02-21T08:57:23;12.00;99.90
16643;DHT22;8435;52.184;5.406;2023-02-21T08:59:49;12.00;99.90
16643;DHT22;8435;52.184;5.406;2023-02-21T09:02:17;12.00;99.90
16643;DHT22;8435;52.184;5.406;2023-02-21T09:04:45;12.10;99.90
16643;DHT22;8435;52.184;5.406;2023-02-21T09:07:14;12.10;99.90
16643;DHT22;8435;52.184;5.406;2023-02-21T09:09:41;12.10;99.90
16643;DHT22;8435;52.184;5.406;2023-02-21T09:12:08;12.10;99.90
16643;DHT22;8435;52.184;5.406;2023-02-21T09:14:39;12.10;99.90
16643;DHT22;8435;52.184;5.406;2023-02-21T09:17:07;12.10;99.90
16643;DHT22;8435;52.184;5.406;2023-02-21T09:19:35;12.10;99.90
16643;DHT22;8435;52.184;5.406;2023-02-21T09:22:01;12.10;99.90
16643;DHT22;8435;52.184;5.406;2023-02-21T09:24:30;12.10;99.90
16643;DHT22;8435;52.184;5.406;2023-02-21T09:26:58;12.20;99.90
16643;DHT22;8435;52.184;5.406;2023-02-21T09:29:28;12.20;99.90
16643;DHT22;8435;52.184;5.406;2023-02-21T09:31:57;12.20;99.90
16643;DHT22;8435;52.184;5.406;2023-02-21T09:34:24;12.20;99.90
16643;DHT22;8435;52.184;5.406;2023-02-21T09:36:50;12.20;99.90
16643;DHT22;8435;52.184;5.406;2023-02-21T09:39:19;12.20;99.90
16643;DHT22;8435;52.184;5.406;2023-02-21T09:41:50;12.20;99.90
16643;DHT22;8435;52.184;5.406;2023-02-21T09:44:22;12.20;99.90
16643;DHT22;8435;52.184;5.406;2023-02-21T09:46:53;12.20;99.90
16643;DHT22;8435;52.184;5.406;2023-02-21T09:49:24;12.20;99.90
16643;DHT22;8435;52.184;5.406;2023-02-21T09:51:52;12.20;99.90
16643;DHT22;8435;52.184;5.406;2023-02-21T09:54:25;12.20;99.90
16643;DHT22;8435;52.184;5.406;2023-02-21T09:56:58;12.20;99.90
16643;DHT22;8435;52.184;5.406;2023-02-21T09:59:32;12.30;99.90
16643;DHT22;8435;52.184;5.406;2023-02-21T10:02:14;12.30;99.90
16643;DHT22;8435;52.184;5.406;2023-02-21T10:04:56;12.30;99.90
16643;DHT22;8435;52.184;5.406;2023-02-21T10:07:32;12.30;99.90
16643;DHT22;8435;52.184;5.406;2023-02-21T10:10:08;12.30;99.90
16643;DHT22;8435;52.184;5.406;2023-02-21T10:12:43;12.30;99.90
16643;DHT22;8435;52.184;5.406;2023-02-21T10:15:31;12.30;99.90
16643;DHT22;8435;52.184;5.406;2023-02-21T10:18:05;12.30;99.90
16643;DHT22;8435;52.184;5.406;2023-02-21T10:20:38;12.40;99.90
16643;DHT22;8435;52.184;5.406;2023-02-21T10:23:13;12.40;99.90
16643;DHT22;8435;52.184;5.406;2023-02-21T10:25:42;12.40;99.90
16643;DHT22;8435;52.184;5.406;2023-02-21T10:28:16;12.40;99.90
16643;DHT22;8435;52.184;5.406;2023-02-21T10:30:44;12.40;99.90
16643;DHT22;8435;52.184;5.406;2023-02-21T10:33:11;12.50;99.90
16643;DHT22;8435;52.184;5.406;2023-02-21T10:35:38;12.50;99.90
16643;DHT22;8435;52.184;5.406;2023-02-21T10:38:07;12.50;99.90
16643;DHT22;8435;52.184;5.406;2023-02-21T10:40:37;12.50;99.90
16643;DHT22;8435;52.184;5.406;2023-02-21T10:43:08;12.50;99.90
16643;DHT22;8435;52.184;5.406;2023-02-21T10:45:44;12.50;99.90
16643;DHT22;8435;52.184;5.406;2023-02-21T10:48:12;12.60;99.90
16643;DHT22;8435;52.184;5.406;2023-02-21T10:50:47;12.60;99.90
16643;DHT22;8435;52.184;5.406;2023-02-21T10:53:26;12.60;99.90
16643;DHT22;8435;52.184;5.406;2023-02-21T10:56:21;12.60;99.90
16643;DHT22;8435;52.184;5.406;2023-02-21T10:58:51;12.70;99.90
16643;DHT22;8435;52.184;5.406;2023-02-21T11:01:22;12.70;99.90
16643;DHT22;8435;52.184;5.406;2023-02-21T11:03:57;12.70;99.90
16643;DHT22;8435;52.184;5.406;2023-02-21T11:06:31;12.80;99.90
16643;DHT22;8435;52.184;5.406;2023-02-21T11:08:59;12.80;99.90
16643;DHT22;8435;52.184;5.406;2023-02-21T11:11:36;12.70;99.90
16643;DHT22;8435;52.184;5.406;2023-02-21T11:14:22;12.80;99.90
16643;DHT22;8435;52.184;5.406;2023-02-21T11:17:14;12.80;99.90
16643;DHT22;8435;52.184;5.406;2023-02-21T11:19:47;12.80;99.90
16643;DHT22;8435;52.184;5.406;2023-02-21T11:22:16;12.90;99.90
16643;DHT22;8435;52.184;5.406;2023-02-21T11:24:49;12.90;99.90
16643;DHT22;8435;52.184;5.406;2023-02-21T11:27:17;12.90;99.90
16643;DHT22;8435;52.184;5.406;2023-02-21T11:29:47;13.00;99.90
16643;DHT22;8435;52.184;5.406;2023-02-21T11:32:24;13.00;99.90
16643;DHT22;8435;52.184;5.406;2023-02-21T11:35:01;13.00;99.90
16643;DHT22;8435;52.184;5.406;2023-02-21T11:37:28;13.00;99.90
16643;DHT22;8435;52.184;5.406;2023-02-21T11:39:57;13.00;99.90
16643;DHT22;8435;52.184;5.406;2023-02-21T11:42:28;13.00;99.90
16643;DHT22;8435;52.184;5.406;2023-02-21T11:45:12;13.00;99.90
16643;DHT22;8435;52.184;5.406;2023-02-21T11:47:45;13.00;99.90
16643;DHT22;8435;52.184;5.406;2023-02-21T11:50:20;13.00;99.90
16643;DHT22;8435;52.184;5.406;2023-02-21T11:52:55;13.00;99.90
16643;DHT22;8435;52.184;5.406;2023-02-21T11:55:25;13.00;99.90
16643;DHT22;8435;52.184;5.406;2023-02-21T11:58:00;13.00;99.90
16643;DHT22;8435;52.184;5.406;2023-02-21T12:00:38;13.00;99.90
16643;DHT22;8435;52.184;5.406;2023-02-21T12:03:24;12.90;99.90
16643;DHT22;8435;52.184;5.406;2023-02-21T12:05:57;12.90;99.90
16643;DHT22;8435;52.184;5.406;2023-02-21T12:08:36;13.00;99.90
16643;DHT22;8435;52.184;5.406;2023-02-21T12:11:16;13.00;99.90
16643;DHT22;8435;52.184;5.406;2023-02-21T12:13:53;13.00;99.90
16643;DHT22;8435;52.184;5.406;2023-02-21T12:16:34;12.90;99.90
16643;DHT22;8435;52.184;5.406;2023-02-21T12:19:20;13.00;99.90
16643;DHT22;8435;52.184;5.406;2023-02-21T12:22:01;12.90;99.90
16643;DHT22;8435;52.184;5.406;2023-02-21T12:24:39;13.00;99.90
16643;DHT22;8435;52.184;5.406;2023-02-21T12:27:13;13.00;99.90
16643;DHT22;8435;52.184;5.406;2023-02-21T12:29:52;13.00;99.90
16643;DHT22;8435;52.184;5.406;2023-02-21T12:32:45;13.00;99.90
16643;DHT22;8435;52.184;5.406;2023-02-21T12:35:44;13.00;99.90
16643;DHT22;8435;52.184;5.406;2023-02-21T12:38:20;12.90;99.90
16643;DHT22;8435;52.184;5.406;2023-02-21T12:40:56;12.90;99.90
16643;DHT22;8435;52.184;5.406;2023-02-21T12:43:37;12.90;99.90
16643;DHT22;8435;52.184;5.406;2023-02-21T12:46:11;12.90;99.90
16643;DHT22;8435;52.184;5.406;2023-02-21T12:48:44;12.90;99.90
16643;DHT22;8435;52.184;5.406;2023-02-21T12:51:17;12.80;99.90
16643;DHT22;8435;52.184;5.406;2023-02-21T12:53:50;12.80;99.90
16643;DHT22;8435;52.184;5.406;2023-02-21T12:56:22;12.80;99.90
16643;DHT22;8435;52.184;5.406;2023-02-21T12:58:55;12.80;99.90
16643;DHT22;8435;52.184;5.406;2023-02-21T13:01:27;12.80;99.90
16643;DHT22;8435;52.184;5.406;2023-02-21T13:04:04;12.80;99.90
16643;DHT22;8435;52.184;5.406;2023-02-21T13:06:35;12.80;99.90
16643;DHT22;8435;52.184;5.406;2023-02-21T13:09:12;12.80;99.90
16643;DHT22;8435;52.184;5.406;2023-02-21T13:11:45;12.80;99.90
16643;DHT22;8435;52.184;5.406;2023-02-21T13:14:17;12.80;99.90
16643;DHT22;8435;52.184;5.406;2023-02-21T13:16:45;12.80;99.90
16643;DHT22;8435;52.184;5.406;2023-02-21T13:19:14;12.70;99.90
16643;DHT22;8435;52.184;5.406;2023-02-21T13:21:51;12.80;99.90
16643;DHT22;8435;52.184;5.406;2023-02-21T13:24:34;12.70;99.90
16643;DHT22;8435;52.184;5.406;2023-02-21T13:27:33;12.80;99.90
16643;DHT22;8435;52.184;5.406;2023-02-21T13:30:12;12.70;99.90
16643;DHT22;8435;52.184;5.406;2023-02-21T13:32:49;12.80;99.90
16643;DHT22;8435;52.184;5.406;2023-02-21T13:35:19;12.70;99.90
16643;DHT22;8435;52.184;5.406;2023-02-21T13:37:50;12.70;99.90
16643;DHT22;8435;52.184;5.406;2023-02-21T13:40:20;12.70;99.90
16643;DHT22;8435;52.184;5.406;2023-02-21T13:43:02;12.70;99.90
16643;DHT22;8435;52.184;5.406;2023-02-21T13:45:30;12.80;99.90
16643;DHT22;8435;52.184;5.406;2023-02-21T13:48:23;12.80;99.90
16643;DHT22;8435;52.184;5.406;2023-02-21T13:50:52;12.80;99.90
16643;DHT22;8435;52.184;5.406;2023-02-21T13:53:22;12.80;99.90
16643;DHT22;8435;52.184;5.406;2023-02-21T13:56:11;12.80;99.90
16643;DHT22;8435;52.184;5.406;2023-02-21T13:58:39;12.80;99.90
16643;DHT22;8435;52.184;5.406;2023-02-21T14:04:48;12.80;99.90
16643;DHT22;8435;52.184;5.406;2023-02-21T14:07:17;12.80;99.90
16643;DHT22;8435;52.184;5.406;2023-02-21T14:10:11;12.80;99.90
16643;DHT22;8435;52.184;5.406;2023-02-21T14:12:44;12.90;99.90
16643;DHT22;8435;52.184;5.406;2023-02-21T14:15:16;12.80;99.90
16643;DHT22;8435;52.184;5.406;2023-02-21T14:17:46;12.80;99.90
16643;DHT22;8435;52.184;5.406;2023-02-21T14:20:14;12.90;99.90
16643;DHT22;8435;52.184;5.406;2023-02-21T14:22:45;12.80;99.90
16643;DHT22;8435;52.184;5.406;2023-02-21T14:25:18;12.80;99.90
16643;DHT22;8435;52.184;5.406;2023-02-21T14:27:47;12.80;99.90
16643;DHT22;8435;52.184;5.406;2023-02-21T14:30:36;12.90;99.90
16643;DHT22;8435;52.184;5.406;2023-02-21T14:33:13;12.90;99.90
16643;DHT22;8435;52.184;5.406;2023-02-21T14:35:45;12.90;99.90
16643;DHT22;8435;52.184;5.406;2023-02-21T14:38:17;12.90;99.90
16643;DHT22;8435;52.184;5.406;2023-02-21T14:40:57;12.90;99.90
16643;DHT22;8435;52.184;5.406;2023-02-21T14:43:54;12.90;99.90
16643;DHT22;8435;52.184;5.406;2023-02-21T14:46:41;12.90;99.90
16643;DHT22;8435;52.184;5.406;2023-02-21T14:49:38;12.90;99.90
16643;DHT22;8435;52.184;5.406;2023-02-21T14:55:38;12.90;99.90
16643;DHT22;8435;52.184;5.406;2023-02-21T14:58:34;12.90;99.90
16643;DHT22;8435;52.184;5.406;2023-02-21T15:01:07;12.90;99.90
16643;DHT22;8435;52.184;5.406;2023-02-21T15:03:41;12.90;99.90
16643;DHT22;8435;52.184;5.406;2023-02-21T15:06:17;12.80;99.90
16643;DHT22;8435;52.184;5.406;2023-02-21T15:08:47;12.90;99.90
16643;DHT22;8435;52.184;5.406;2023-02-21T15:11:20;12.90;99.90
16643;DHT22;8435;52.184;5.406;2023-02-21T15:14:13;12.90;99.90
16643;DHT22;8435;52.184;5.406;2023-02-21T15:16:48;12.80;99.90
16643;DHT22;8435;52.184;5.406;2023-02-21T15:19:21;12.90;99.90
16643;DHT22;8435;52.184;5.406;2023-02-21T15:22:15;12.80;99.90
16643;DHT22;8435;52.184;5.406;2023-02-21T15:24:56;12.80;99.90
16643;DHT22;8435;52.184;5.406;2023-02-21T15:27:26;12.80;99.90
16643;DHT22;8435;52.184;5.406;2023-02-21T15:30:05;12.80;99.90
16643;DHT22;8435;52.184;5.406;2023-02-21T15:32:33;12.70;99.90
16643;DHT22;8435;52.184;5.406;2023-02-21T15:35:03;12.70;99.90
16643;DHT22;8435;52.184;5.406;2023-02-21T15:37:34;12.70;99.90
16643;DHT22;8435;52.184;5.406;2023-02-21T15:40:05;12.70;99.90
16643;DHT22;8435;52.184;5.406;2023-02-21T15:42:37;12.60;99.90
16643;DHT22;8435;52.184;5.406;2023-02-21T15:45:14;12.60;99.90
16643;DHT22;8435;52.184;5.406;2023-02-21T15:47:42;12.60;99.90
16643;DHT22;8435;52.184;5.406;2023-02-21T15:50:11;12.60;99.90
16643;DHT22;8435;52.184;5.406;2023-02-21T15:52:41;12.50;99.90
16643;DHT22;8435;52.184;5.406;2023-02-21T15:55:13;12.60;99.90
16643;DHT22;8435;52.184;5.406;2023-02-21T15:57:40;12.60;99.90
16643;DHT22;8435;52.184;5.406;2023-02-21T16:00:21;12.60;99.90
16643;DHT22;8435;52.184;5.406;2023-02-21T16:02:49;12.50;99.90
16643;DHT22;8435;52.184;5.406;2023-02-21T16:05:26;12.60;99.90
16643;DHT22;8435;52.184;5.406;2023-02-21T16:07:59;12.50;99.90
16643;DHT22;8435;52.184;5.406;2023-02-21T16:10:26;12.50;99.90
16643;DHT22;8435;52.184;5.406;2023-02-21T16:12:55;12.50;99.90
16643;DHT22;8435;52.184;5.406;2023-02-21T16:15:25;12.50;99.90
16643;DHT22;8435;52.184;5.406;2023-02-21T16:17:54;12.50;99.90
16643;DHT22;8435;52.184;5.406;2023-02-21T16:20:28;12.50;99.90
16643;DHT22;8435;52.184;5.406;2023-02-21T16:23:18;12.50;99.90
16643;DHT22;8435;52.184;5.406;2023-02-21T16:25:56;12.50;99.90
16643;DHT22;8435;52.184;5.406;2023-02-21T16:28:23;12.50;99.90
16643;DHT22;8435;52.184;5.406;2023-02-21T16:30:51;12.40;99.90
16643;DHT22;8435;52.184;5.406;2023-02-21T16:33:23;12.40;99.90
16643;DHT22;8435;52.184;5.406;2023-02-21T16:35:52;12.40;99.90
16643;DHT22;8435;52.184;5.406;2023-02-21T16:38:21;12.40;99.90